sensor_id;sensor_type;location;lat;lon;timestamp;P1;durP1;ratioP1;P2;durP2;ratioP2
37459;SDS011;23318;50.966;5.284;2022-12-29T00:02:11;0.75;;;0.73;;
37459;SDS011;23318;50.966;5.284;2022-12-29T00:04:37;0.82;;;0.80;;
37459;SDS011;23318;50.966;5.284;2022-12-29T00:07:04;1.10;;;0.50;;
37459;SDS011;23318;50.966;5.284;2022-12-29T00:09:30;1.13;;;0.57;;
37459;SDS011;23318;50.966;5.284;2022-12-29T00:11:56;1.25;;;1.00;;
37459;SDS011;23318;50.966;5.284;2022-12-29T00:14:22;0.70;;;0.70;;
37459;SDS011;23318;50.966;5.284;2022-12-29T00:17:07;1.15;;;0.68;;
37459;SDS011;23318;50.966;5.284;2022-12-29T00:19:33;0.40;;;0.40;;
37459;SDS011;23318;50.966;5.284;2022-12-29T00:22:18;5.57;;;0.68;;
37459;SDS011;23318;50.966;5.284;2022-12-29T00:25:02;1.25;;;0.60;;
37459;SDS011;23318;50.966;5.284;2022-12-29T00:27:47;1.77;;;0.40;;
37459;SDS011;23318;50.966;5.284;2022-12-29T00:33:16;0.70;;;0.40;;
37459;SDS011;23318;50.966;5.284;2022-12-29T00:38:42;0.55;;;0.30;;
37459;SDS011;23318;50.966;5.284;2022-12-29T00:41:33;1.10;;;0.50;;
37459;SDS011;23318;50.966;5.284;2022-12-29T00:44:18;1.85;;;0.60;;
37459;SDS011;23318;50.966;5.284;2022-12-29T00:46:43;0.85;;;0.40;;
37459;SDS011;23318;50.966;5.284;2022-12-29T00:49:11;0.80;;;0.50;;
37459;SDS011;23318;50.966;5.284;2022-12-29T00:51:56;0.47;;;0.35;;
37459;SDS011;23318;50.966;5.284;2022-12-29T00:54:31;0.57;;;0.40;;
37459;SDS011;23318;50.966;5.284;2022-12-29T00:56:58;0.70;;;0.50;;
37459;SDS011;23318;50.966;5.284;2022-12-29T00:59:24;3.60;;;0.60;;
37459;SDS011;23318;50.966;5.284;2022-12-29T01:01:50;1.02;;;0.50;;
37459;SDS011;23318;50.966;5.284;2022-12-29T01:04:17;1.42;;;0.40;;
37459;SDS011;23318;50.966;5.284;2022-12-29T01:06:43;2.17;;;0.50;;
37459;SDS011;23318;50.966;5.284;2022-12-29T01:09:10;1.15;;;0.50;;
37459;SDS011;23318;50.966;5.284;2022-12-29T01:11:55;0.68;;;0.47;;
37459;SDS011;23318;50.966;5.284;2022-12-29T01:14:21;2.28;;;0.70;;
37459;SDS011;23318;50.966;5.284;2022-12-29T01:16:47;1.85;;;0.50;;
37459;SDS011;23318;50.966;5.284;2022-12-29T01:19:13;2.38;;;0.70;;
37459;SDS011;23318;50.966;5.284;2022-12-29T01:21:40;2.05;;;0.77;;
37459;SDS011;23318;50.966;5.284;2022-12-29T01:24:06;1.10;;;0.57;;
37459;SDS011;23318;50.966;5.284;2022-12-29T01:26:32;2.13;;;0.73;;
37459;SDS011;23318;50.966;5.284;2022-12-29T01:28:58;2.05;;;0.80;;
37459;SDS011;23318;50.966;5.284;2022-12-29T01:31:23;0.70;;;0.60;;
37459;SDS011;23318;50.966;5.284;2022-12-29T01:33:49;2.35;;;0.75;;
37459;SDS011;23318;50.966;5.284;2022-12-29T01:36:16;2.40;;;0.80;;
37459;SDS011;23318;50.966;5.284;2022-12-29T01:38:42;1.65;;;0.80;;
37459;SDS011;23318;50.966;5.284;2022-12-29T01:41:09;1.95;;;0.80;;
37459;SDS011;23318;50.966;5.284;2022-12-29T01:46:06;2.30;;;1.27;;
37459;SDS011;23318;50.966;5.284;2022-12-29T01:48:59;3.85;;;1.33;;
37459;SDS011;23318;50.966;5.284;2022-12-29T01:51:57;4.28;;;0.90;;
37459;SDS011;23318;50.966;5.284;2022-12-29T01:54:37;2.90;;;1.08;;
37459;SDS011;23318;50.966;5.284;2022-12-29T01:57:12;3.47;;;1.00;;
37459;SDS011;23318;50.966;5.284;2022-12-29T01:59:53;3.13;;;0.90;;
37459;SDS011;23318;50.966;5.284;2022-12-29T02:02:24;5.05;;;0.95;;
37459;SDS011;23318;50.966;5.284;2022-12-29T02:04:50;5.63;;;0.60;;
37459;SDS011;23318;50.966;5.284;2022-12-29T02:07:19;4.47;;;1.60;;
37459;SDS011;23318;50.966;5.284;2022-12-29T02:09:48;5.90;;;0.80;;
37459;SDS011;23318;50.966;5.284;2022-12-29T02:12:15;2.40;;;0.80;;
37459;SDS011;23318;50.966;5.284;2022-12-29T02:14:45;3.67;;;1.00;;
37459;SDS011;23318;50.966;5.284;2022-12-29T02:34:04;4.40;;;0.50;;
37459;SDS011;23318;50.966;5.284;2022-12-29T02:42:33;2.13;;;0.50;;
37459;SDS011;23318;50.966;5.284;2022-12-29T02:47:55;1.33;;;0.50;;
37459;SDS011;23318;50.966;5.284;2022-12-29T02:50:38;2.00;;;0.57;;
37459;SDS011;23318;50.966;5.284;2022-12-29T02:53:11;2.67;;;0.50;;
37459;SDS011;23318;50.966;5.284;2022-12-29T02:55:47;0.95;;;0.60;;
37459;SDS011;23318;50.966;5.284;2022-12-29T02:58:17;1.13;;;0.70;;
37459;SDS011;23318;50.966;5.284;2022-12-29T03:00:55;2.08;;;0.70;;
37459;SDS011;23318;50.966;5.284;2022-12-29T03:14:47;1.20;;;0.30;;
37459;SDS011;23318;50.966;5.284;2022-12-29T03:17:53;1.77;;;0.55;;
37459;SDS011;23318;50.966;5.284;2022-12-29T03:20:24;1.73;;;0.55;;
37459;SDS011;23318;50.966;5.284;2022-12-29T03:22:57;1.27;;;0.35;;
37459;SDS011;23318;50.966;5.284;2022-12-29T03:28:28;3.60;;;0.60;;
37459;SDS011;23318;50.966;5.284;2022-12-29T03:30:57;1.38;;;0.45;;
37459;SDS011;23318;50.966;5.284;2022-12-29T03:33:25;2.20;;;0.50;;
37459;SDS011;23318;50.966;5.284;2022-12-29T03:35:54;1.88;;;0.50;;
37459;SDS011;23318;50.966;5.284;2022-12-29T03:38:25;4.80;;;0.95;;
37459;SDS011;23318;50.966;5.284;2022-12-29T03:40:56;3.10;;;0.77;;
37459;SDS011;23318;50.966;5.284;2022-12-29T03:43:25;2.92;;;1.05;;
37459;SDS011;23318;50.966;5.284;2022-12-29T03:45:52;1.50;;;0.52;;
37459;SDS011;23318;50.966;5.284;2022-12-29T03:48:17;3.30;;;0.68;;
37459;SDS011;23318;50.966;5.284;2022-12-29T03:50:43;2.85;;;0.52;;
37459;SDS011;23318;50.966;5.284;2022-12-29T03:53:09;1.30;;;0.40;;
37459;SDS011;23318;50.966;5.284;2022-12-29T03:55:34;2.55;;;0.50;;
37459;SDS011;23318;50.966;5.284;2022-12-29T03:58:00;2.22;;;0.88;;
37459;SDS011;23318;50.966;5.284;2022-12-29T04:00:26;4.35;;;0.63;;
37459;SDS011;23318;50.966;5.284;2022-12-29T04:02:51;1.77;;;0.63;;
37459;SDS011;23318;50.966;5.284;2022-12-29T04:05:17;6.28;;;1.00;;
37459;SDS011;23318;50.966;5.284;2022-12-29T04:07:43;1.08;;;0.30;;
37459;SDS011;23318;50.966;5.284;2022-12-29T04:10:09;3.28;;;1.60;;
37459;SDS011;23318;50.966;5.284;2022-12-29T04:12:35;4.20;;;0.45;;
37459;SDS011;23318;50.966;5.284;2022-12-29T04:15:00;2.08;;;0.60;;
37459;SDS011;23318;50.966;5.284;2022-12-29T04:17:26;3.45;;;0.73;;
37459;SDS011;23318;50.966;5.284;2022-12-29T04:19:51;4.35;;;1.23;;
37459;SDS011;23318;50.966;5.284;2022-12-29T04:22:37;3.90;;;0.60;;
37459;SDS011;23318;50.966;5.284;2022-12-29T04:25:03;4.18;;;0.80;;
37459;SDS011;23318;50.966;5.284;2022-12-29T04:27:29;5.03;;;1.00;;
37459;SDS011;23318;50.966;5.284;2022-12-29T04:29:54;4.47;;;1.00;;
37459;SDS011;23318;50.966;5.284;2022-12-29T04:32:20;2.78;;;1.02;;
37459;SDS011;23318;50.966;5.284;2022-12-29T04:34:46;2.80;;;0.88;;
37459;SDS011;23318;50.966;5.284;2022-12-29T04:37:11;5.55;;;0.80;;
37459;SDS011;23318;50.966;5.284;2022-12-29T04:39:37;3.42;;;0.80;;
37459;SDS011;23318;50.966;5.284;2022-12-29T04:42:03;4.55;;;0.82;;
37459;SDS011;23318;50.966;5.284;2022-12-29T04:44:29;5.18;;;0.82;;
37459;SDS011;23318;50.966;5.284;2022-12-29T04:46:54;2.20;;;0.50;;
37459;SDS011;23318;50.966;5.284;2022-12-29T04:49:20;5.35;;;0.82;;
37459;SDS011;23318;50.966;5.284;2022-12-29T04:51:46;3.40;;;0.82;;
37459;SDS011;23318;50.966;5.284;2022-12-29T04:54:11;2.65;;;0.55;;
37459;SDS011;23318;50.966;5.284;2022-12-29T04:56:37;3.25;;;0.65;;
37459;SDS011;23318;50.966;5.284;2022-12-29T04:59:03;2.90;;;0.80;;
37459;SDS011;23318;50.966;5.284;2022-12-29T05:01:28;2.30;;;0.50;;
37459;SDS011;23318;50.966;5.284;2022-12-29T05:03:54;4.38;;;0.70;;
37459;SDS011;23318;50.966;5.284;2022-12-29T05:06:20;3.40;;;0.50;;
37459;SDS011;23318;50.966;5.284;2022-12-29T05:08:45;5.40;;;0.80;;
37459;SDS011;23318;50.966;5.284;2022-12-29T05:11:11;2.47;;;0.45;;
37459;SDS011;23318;50.966;5.284;2022-12-29T05:13:37;5.40;;;0.90;;
37459;SDS011;23318;50.966;5.284;2022-12-29T05:16:03;5.03;;;0.70;;
37459;SDS011;23318;50.966;5.284;2022-12-29T05:18:29;5.80;;;1.05;;
37459;SDS011;23318;50.966;5.284;2022-12-29T05:20:54;2.63;;;1.00;;
37459;SDS011;23318;50.966;5.284;2022-12-29T05:23:20;3.20;;;0.88;;
37459;SDS011;23318;50.966;5.284;2022-12-29T05:25:46;6.15;;;0.93;;
37459;SDS011;23318;50.966;5.284;2022-12-29T05:28:12;4.47;;;1.17;;
37459;SDS011;23318;50.966;5.284;2022-12-29T05:30:39;5.70;;;1.13;;
37459;SDS011;23318;50.966;5.284;2022-12-29T05:33:04;4.30;;;0.75;;
37459;SDS011;23318;50.966;5.284;2022-12-29T05:35:31;5.65;;;0.88;;
37459;SDS011;23318;50.966;5.284;2022-12-29T05:37:57;7.32;;;0.88;;
37459;SDS011;23318;50.966;5.284;2022-12-29T05:40:23;6.15;;;0.85;;
37459;SDS011;23318;50.966;5.284;2022-12-29T05:42:49;3.20;;;0.57;;
37459;SDS011;23318;50.966;5.284;2022-12-29T05:45:15;3.17;;;1.20;;
37459;SDS011;23318;50.966;5.284;2022-12-29T05:47:40;7.47;;;1.10;;
37459;SDS011;23318;50.966;5.284;2022-12-29T05:50:06;2.10;;;0.60;;
37459;SDS011;23318;50.966;5.284;2022-12-29T05:52:32;3.05;;;0.70;;
37459;SDS011;23318;50.966;5.284;2022-12-29T05:54:58;6.75;;;1.27;;
37459;SDS011;23318;50.966;5.284;2022-12-29T05:57:24;5.85;;;0.90;;
37459;SDS011;23318;50.966;5.284;2022-12-29T05:59:49;3.13;;;0.93;;
37459;SDS011;23318;50.966;5.284;2022-12-29T06:02:15;5.75;;;0.90;;
37459;SDS011;23318;50.966;5.284;2022-12-29T06:04:41;6.20;;;1.02;;
37459;SDS011;23318;50.966;5.284;2022-12-29T06:07:06;6.43;;;1.30;;
37459;SDS011;23318;50.966;5.284;2022-12-29T06:09:32;9.43;;;1.10;;
37459;SDS011;23318;50.966;5.284;2022-12-29T06:11:58;5.47;;;1.00;;
37459;SDS011;23318;50.966;5.284;2022-12-29T06:14:24;8.52;;;1.23;;
37459;SDS011;23318;50.966;5.284;2022-12-29T06:16:49;6.45;;;1.45;;
37459;SDS011;23318;50.966;5.284;2022-12-29T06:19:15;5.72;;;1.17;;
37459;SDS011;23318;50.966;5.284;2022-12-29T06:21:41;5.93;;;1.50;;
37459;SDS011;23318;50.966;5.284;2022-12-29T06:24:06;5.18;;;0.90;;
37459;SDS011;23318;50.966;5.284;2022-12-29T06:26:32;6.75;;;1.42;;
37459;SDS011;23318;50.966;5.284;2022-12-29T06:28:58;5.78;;;1.30;;
37459;SDS011;23318;50.966;5.284;2022-12-29T06:31:24;6.18;;;0.93;;
37459;SDS011;23318;50.966;5.284;2022-12-29T06:33:49;10.18;;;1.17;;
37459;SDS011;23318;50.966;5.284;2022-12-29T06:36:15;6.07;;;1.13;;
37459;SDS011;23318;50.966;5.284;2022-12-29T06:38:41;11.32;;;1.58;;
37459;SDS011;23318;50.966;5.284;2022-12-29T06:41:06;5.82;;;1.80;;
37459;SDS011;23318;50.966;5.284;2022-12-29T06:43:32;10.15;;;1.17;;
37459;SDS011;23318;50.966;5.284;2022-12-29T06:45:58;6.03;;;1.20;;
37459;SDS011;23318;50.966;5.284;2022-12-29T06:48:24;10.38;;;1.63;;
37459;SDS011;23318;50.966;5.284;2022-12-29T06:50:50;3.95;;;1.17;;
37459;SDS011;23318;50.966;5.284;2022-12-29T06:53:16;7.65;;;1.88;;
37459;SDS011;23318;50.966;5.284;2022-12-29T06:55:42;9.43;;;1.55;;
37459;SDS011;23318;50.966;5.284;2022-12-29T06:58:07;7.18;;;1.33;;
37459;SDS011;23318;50.966;5.284;2022-12-29T07:00:33;4.80;;;0.77;;
37459;SDS011;23318;50.966;5.284;2022-12-29T07:02:59;7.47;;;1.55;;
37459;SDS011;23318;50.966;5.284;2022-12-29T07:05:25;6.43;;;1.65;;
37459;SDS011;23318;50.966;5.284;2022-12-29T07:07:56;11.18;;;2.13;;
37459;SDS011;23318;50.966;5.284;2022-12-29T07:10:22;9.20;;;1.65;;
37459;SDS011;23318;50.966;5.284;2022-12-29T07:12:48;8.70;;;1.35;;
37459;SDS011;23318;50.966;5.284;2022-12-29T07:15:14;8.27;;;1.08;;
37459;SDS011;23318;50.966;5.284;2022-12-29T07:17:39;9.05;;;1.38;;
37459;SDS011;23318;50.966;5.284;2022-12-29T07:20:05;8.65;;;2.03;;
37459;SDS011;23318;50.966;5.284;2022-12-29T07:22:32;7.38;;;1.50;;
37459;SDS011;23318;50.966;5.284;2022-12-29T07:24:58;11.02;;;1.60;;
37459;SDS011;23318;50.966;5.284;2022-12-29T07:27:23;5.35;;;1.10;;
37459;SDS011;23318;50.966;5.284;2022-12-29T07:29:49;7.80;;;1.35;;
37459;SDS011;23318;50.966;5.284;2022-12-29T07:32:15;12.15;;;1.80;;
37459;SDS011;23318;50.966;5.284;2022-12-29T07:34:40;9.32;;;1.20;;
37459;SDS011;23318;50.966;5.284;2022-12-29T07:37:06;7.13;;;1.30;;
37459;SDS011;23318;50.966;5.284;2022-12-29T07:39:32;7.57;;;1.50;;
37459;SDS011;23318;50.966;5.284;2022-12-29T07:41:58;6.53;;;1.42;;
37459;SDS011;23318;50.966;5.284;2022-12-29T07:44:24;7.78;;;2.17;;
37459;SDS011;23318;50.966;5.284;2022-12-29T07:46:49;6.78;;;1.55;;
37459;SDS011;23318;50.966;5.284;2022-12-29T07:49:15;6.82;;;1.60;;
37459;SDS011;23318;50.966;5.284;2022-12-29T07:51:41;10.75;;;1.60;;
37459;SDS011;23318;50.966;5.284;2022-12-29T07:54:06;7.50;;;1.25;;
37459;SDS011;23318;50.966;5.284;2022-12-29T07:56:33;11.43;;;2.00;;
37459;SDS011;23318;50.966;5.284;2022-12-29T07:58:59;10.73;;;1.85;;
37459;SDS011;23318;50.966;5.284;2022-12-29T08:01:24;10.02;;;2.20;;
37459;SDS011;23318;50.966;5.284;2022-12-29T08:03:50;8.10;;;1.77;;
37459;SDS011;23318;50.966;5.284;2022-12-29T08:06:16;10.98;;;1.98;;
37459;SDS011;23318;50.966;5.284;2022-12-29T08:08:43;7.35;;;1.60;;
37459;SDS011;23318;50.966;5.284;2022-12-29T08:11:09;12.48;;;2.08;;
37459;SDS011;23318;50.966;5.284;2022-12-29T08:13:34;7.53;;;1.50;;
37459;SDS011;23318;50.966;5.284;2022-12-29T08:16:00;6.03;;;1.55;;
37459;SDS011;23318;50.966;5.284;2022-12-29T08:18:26;13.77;;;1.98;;
37459;SDS011;23318;50.966;5.284;2022-12-29T08:20:51;10.00;;;1.35;;
37459;SDS011;23318;50.966;5.284;2022-12-29T08:23:17;8.13;;;1.42;;
37459;SDS011;23318;50.966;5.284;2022-12-29T08:25:43;10.43;;;1.80;;
37459;SDS011;23318;50.966;5.284;2022-12-29T08:28:09;19.67;;;1.80;;
37459;SDS011;23318;50.966;5.284;2022-12-29T08:30:35;10.32;;;1.52;;
37459;SDS011;23318;50.966;5.284;2022-12-29T08:33:01;10.68;;;1.90;;
37459;SDS011;23318;50.966;5.284;2022-12-29T08:35:26;13.57;;;1.95;;
37459;SDS011;23318;50.966;5.284;2022-12-29T08:37:52;6.20;;;1.60;;
37459;SDS011;23318;50.966;5.284;2022-12-29T08:40:18;6.75;;;1.50;;
37459;SDS011;23318;50.966;5.284;2022-12-29T08:42:43;8.88;;;1.60;;
37459;SDS011;23318;50.966;5.284;2022-12-29T08:45:09;9.57;;;2.20;;
37459;SDS011;23318;50.966;5.284;2022-12-29T08:47:35;10.25;;;1.73;;
37459;SDS011;23318;50.966;5.284;2022-12-29T08:50:01;8.38;;;1.73;;
37459;SDS011;23318;50.966;5.284;2022-12-29T08:52:27;8.70;;;2.10;;
37459;SDS011;23318;50.966;5.284;2022-12-29T08:54:53;9.35;;;1.60;;
37459;SDS011;23318;50.966;5.284;2022-12-29T08:57:19;16.60;;;3.45;;
37459;SDS011;23318;50.966;5.284;2022-12-29T08:59:44;10.57;;;2.50;;
37459;SDS011;23318;50.966;5.284;2022-12-29T09:02:10;7.57;;;2.55;;
37459;SDS011;23318;50.966;5.284;2022-12-29T09:04:37;10.63;;;2.10;;
37459;SDS011;23318;50.966;5.284;2022-12-29T09:07:03;11.40;;;2.75;;
37459;SDS011;23318;50.966;5.284;2022-12-29T09:09:29;10.45;;;2.08;;
37459;SDS011;23318;50.966;5.284;2022-12-29T09:11:55;10.27;;;2.47;;
37459;SDS011;23318;50.966;5.284;2022-12-29T09:14:21;9.02;;;1.60;;
37459;SDS011;23318;50.966;5.284;2022-12-29T09:16:47;12.25;;;2.40;;
37459;SDS011;23318;50.966;5.284;2022-12-29T09:21:56;15.48;;;3.28;;
37459;SDS011;23318;50.966;5.284;2022-12-29T09:24:22;11.80;;;2.30;;
37459;SDS011;23318;50.966;5.284;2022-12-29T09:26:48;14.25;;;3.03;;
37459;SDS011;23318;50.966;5.284;2022-12-29T09:29:14;11.25;;;2.38;;
37459;SDS011;23318;50.966;5.284;2022-12-29T09:31:39;12.18;;;2.55;;
37459;SDS011;23318;50.966;5.284;2022-12-29T09:34:05;9.52;;;1.80;;
37459;SDS011;23318;50.966;5.284;2022-12-29T09:36:31;6.82;;;2.13;;
37459;SDS011;23318;50.966;5.284;2022-12-29T09:38:56;9.77;;;2.33;;
37459;SDS011;23318;50.966;5.284;2022-12-29T09:41:26;7.10;;;1.77;;
37459;SDS011;23318;50.966;5.284;2022-12-29T09:46:35;12.88;;;2.50;;
37459;SDS011;23318;50.966;5.284;2022-12-29T09:49:22;14.48;;;2.45;;
37459;SDS011;23318;50.966;5.284;2022-12-29T09:51:52;9.30;;;1.77;;
37459;SDS011;23318;50.966;5.284;2022-12-29T09:55:21;12.48;;;2.80;;
37459;SDS011;23318;50.966;5.284;2022-12-29T09:57:24;14.93;;;2.13;;
37459;SDS011;23318;50.966;5.284;2022-12-29T09:59:59;12.63;;;1.85;;
37459;SDS011;23318;50.966;5.284;2022-12-29T10:02:42;10.15;;;2.83;;
37459;SDS011;23318;50.966;5.284;2022-12-29T10:21:34;11.38;;;2.40;;
37459;SDS011;23318;50.966;5.284;2022-12-29T10:24:13;12.05;;;2.75;;
37459;SDS011;23318;50.966;5.284;2022-12-29T10:26:41;13.10;;;2.17;;
37459;SDS011;23318;50.966;5.284;2022-12-29T10:29:28;8.10;;;1.25;;
37459;SDS011;23318;50.966;5.284;2022-12-29T10:32:05;11.45;;;2.47;;
37459;SDS011;23318;50.966;5.284;2022-12-29T10:34:37;15.00;;;2.85;;
37459;SDS011;23318;50.966;5.284;2022-12-29T10:39:49;12.27;;;2.47;;
37459;SDS011;23318;50.966;5.284;2022-12-29T10:42:27;10.95;;;2.58;;
37459;SDS011;23318;50.966;5.284;2022-12-29T10:45:02;8.63;;;1.30;;
37459;SDS011;23318;50.966;5.284;2022-12-29T10:47:30;12.20;;;2.17;;
37459;SDS011;23318;50.966;5.284;2022-12-29T10:50:00;9.43;;;1.70;;
37459;SDS011;23318;50.966;5.284;2022-12-29T10:52:27;9.05;;;2.50;;
37459;SDS011;23318;50.966;5.284;2022-12-29T10:54:59;7.10;;;2.22;;
37459;SDS011;23318;50.966;5.284;2022-12-29T11:00:00;8.75;;;1.63;;
37459;SDS011;23318;50.966;5.284;2022-12-29T11:05:02;11.85;;;2.55;;
37459;SDS011;23318;50.966;5.284;2022-12-29T11:07:35;7.85;;;1.40;;
37459;SDS011;23318;50.966;5.284;2022-12-29T11:13:48;12.50;;;2.70;;
37459;SDS011;23318;50.966;5.284;2022-12-29T11:15:55;12.07;;;2.45;;
37459;SDS011;23318;50.966;5.284;2022-12-29T11:20:55;11.88;;;2.30;;
37459;SDS011;23318;50.966;5.284;2022-12-29T11:26:07;11.98;;;3.90;;
37459;SDS011;23318;50.966;5.284;2022-12-29T11:28:47;17.38;;;5.60;;
37459;SDS011;23318;50.966;5.284;2022-12-29T11:31:50;19.13;;;4.18;;
37459;SDS011;23318;50.966;5.284;2022-12-29T11:37:18;12.73;;;2.22;;
37459;SDS011;23318;50.966;5.284;2022-12-29T11:42:42;9.55;;;2.10;;
37459;SDS011;23318;50.966;5.284;2022-12-29T11:47:56;10.05;;;2.15;;
37459;SDS011;23318;50.966;5.284;2022-12-29T11:50:31;12.68;;;2.30;;
37459;SDS011;23318;50.966;5.284;2022-12-29T11:53:14;12.20;;;2.00;;
37459;SDS011;23318;50.966;5.284;2022-12-29T11:55:53;10.60;;;2.13;;
37459;SDS011;23318;50.966;5.284;2022-12-29T11:58:37;9.68;;;2.10;;
37459;SDS011;23318;50.966;5.284;2022-12-29T12:04:12;9.57;;;2.03;;
37459;SDS011;23318;50.966;5.284;2022-12-29T12:06:45;15.35;;;2.30;;
37459;SDS011;23318;50.966;5.284;2022-12-29T12:12:29;9.80;;;2.28;;
37459;SDS011;23318;50.966;5.284;2022-12-29T12:15:01;11.63;;;2.33;;
37459;SDS011;23318;50.966;5.284;2022-12-29T12:17:41;8.10;;;1.83;;
37459;SDS011;23318;50.966;5.284;2022-12-29T12:20:18;9.13;;;2.08;;
37459;SDS011;23318;50.966;5.284;2022-12-29T12:25:27;11.50;;;1.77;;
37459;SDS011;23318;50.966;5.284;2022-12-29T12:28:05;12.73;;;2.38;;
37459;SDS011;23318;50.966;5.284;2022-12-29T12:33:16;15.13;;;2.97;;
37459;SDS011;23318;50.966;5.284;2022-12-29T12:35:52;5.50;;;1.20;;
37459;SDS011;23318;50.966;5.284;2022-12-29T12:44:02;7.30;;;2.05;;
37459;SDS011;23318;50.966;5.284;2022-12-29T13:00:14;7.10;;;1.83;;
37459;SDS011;23318;50.966;5.284;2022-12-29T13:03:00;9.63;;;2.50;;
37459;SDS011;23318;50.966;5.284;2022-12-29T13:06:15;12.05;;;2.38;;
37459;SDS011;23318;50.966;5.284;2022-12-29T13:08:40;8.70;;;2.08;;
37459;SDS011;23318;50.966;5.284;2022-12-29T13:25:27;9.50;;;1.83;;
37459;SDS011;23318;50.966;5.284;2022-12-29T13:36:03;14.85;;;2.28;;
37459;SDS011;23318;50.966;5.284;2022-12-29T13:38:39;9.95;;;2.10;;
37459;SDS011;23318;50.966;5.284;2022-12-29T13:41:29;5.45;;;2.13;;
37459;SDS011;23318;50.966;5.284;2022-12-29T13:44:00;7.95;;;1.90;;
37459;SDS011;23318;50.966;5.284;2022-12-29T13:46:29;7.20;;;1.38;;
37459;SDS011;23318;50.966;5.284;2022-12-29T13:49:08;5.47;;;2.38;;
37459;SDS011;23318;50.966;5.284;2022-12-29T13:51:47;10.32;;;1.73;;
37459;SDS011;23318;50.966;5.284;2022-12-29T13:54:24;10.82;;;1.77;;
37459;SDS011;23318;50.966;5.284;2022-12-29T13:59:54;16.67;;;2.78;;
37459;SDS011;23318;50.966;5.284;2022-12-29T14:02:31;10.27;;;2.10;;
37459;SDS011;23318;50.966;5.284;2022-12-29T14:07:46;10.68;;;2.28;;
37459;SDS011;23318;50.966;5.284;2022-12-29T14:10:30;13.82;;;2.67;;
37459;SDS011;23318;50.966;5.284;2022-12-29T14:13:12;11.70;;;3.00;;
37459;SDS011;23318;50.966;5.284;2022-12-29T14:15:45;13.77;;;4.32;;
37459;SDS011;23318;50.966;5.284;2022-12-29T14:18:21;10.10;;;2.22;;
37459;SDS011;23318;50.966;5.284;2022-12-29T14:20:58;15.07;;;3.97;;
37459;SDS011;23318;50.966;5.284;2022-12-29T14:26:00;18.92;;;3.42;;
37459;SDS011;23318;50.966;5.284;2022-12-29T14:28:53;8.10;;;2.80;;
37459;SDS011;23318;50.966;5.284;2022-12-29T14:36:35;9.98;;;2.50;;
37459;SDS011;23318;50.966;5.284;2022-12-29T14:39:04;9.88;;;2.30;;
37459;SDS011;23318;50.966;5.284;2022-12-29T14:44:30;18.08;;;3.25;;
37459;SDS011;23318;50.966;5.284;2022-12-29T14:47:00;16.23;;;3.58;;
37459;SDS011;23318;50.966;5.284;2022-12-29T14:49:39;9.82;;;2.58;;
37459;SDS011;23318;50.966;5.284;2022-12-29T14:52:17;15.25;;;2.95;;
37459;SDS011;23318;50.966;5.284;2022-12-29T14:54:56;13.63;;;3.10;;
37459;SDS011;23318;50.966;5.284;2022-12-29T14:57:29;11.65;;;2.63;;
37459;SDS011;23318;50.966;5.284;2022-12-29T15:00:45;21.73;;;4.50;;
37459;SDS011;23318;50.966;5.284;2022-12-29T15:03:07;18.25;;;4.55;;
37459;SDS011;23318;50.966;5.284;2022-12-29T15:05:44;19.15;;;3.90;;
37459;SDS011;23318;50.966;5.284;2022-12-29T15:08:16;19.17;;;3.70;;
37459;SDS011;23318;50.966;5.284;2022-12-29T15:10:45;18.08;;;3.85;;
37459;SDS011;23318;50.966;5.284;2022-12-29T15:13:21;17.70;;;3.13;;
37459;SDS011;23318;50.966;5.284;2022-12-29T15:15:50;17.63;;;4.20;;
37459;SDS011;23318;50.966;5.284;2022-12-29T15:20:50;17.80;;;3.45;;
37459;SDS011;23318;50.966;5.284;2022-12-29T15:23:19;13.20;;;2.90;;
37459;SDS011;23318;50.966;5.284;2022-12-29T15:25:56;18.23;;;3.25;;
37459;SDS011;23318;50.966;5.284;2022-12-29T15:28:24;11.68;;;2.70;;
37459;SDS011;23318;50.966;5.284;2022-12-29T15:30:54;12.85;;;2.83;;
37459;SDS011;23318;50.966;5.284;2022-12-29T15:33:22;14.77;;;3.60;;
37459;SDS011;23318;50.966;5.284;2022-12-29T15:35:51;10.38;;;2.67;;
37459;SDS011;23318;50.966;5.284;2022-12-29T15:38:22;13.82;;;2.38;;
37459;SDS011;23318;50.966;5.284;2022-12-29T15:40:57;19.40;;;3.97;;
37459;SDS011;23318;50.966;5.284;2022-12-29T15:46:39;10.90;;;2.83;;
37459;SDS011;23318;50.966;5.284;2022-12-29T15:49:06;11.38;;;2.50;;
37459;SDS011;23318;50.966;5.284;2022-12-29T15:51:37;10.02;;;1.65;;
37459;SDS011;23318;50.966;5.284;2022-12-29T15:54:04;17.58;;;2.90;;
37459;SDS011;23318;50.966;5.284;2022-12-29T15:56:31;13.70;;;2.55;;
37459;SDS011;23318;50.966;5.284;2022-12-29T15:58:58;13.10;;;2.63;;
37459;SDS011;23318;50.966;5.284;2022-12-29T16:01:30;14.05;;;3.15;;
37459;SDS011;23318;50.966;5.284;2022-12-29T16:03:58;10.25;;;2.50;;
37459;SDS011;23318;50.966;5.284;2022-12-29T16:06:35;13.55;;;3.00;;
37459;SDS011;23318;50.966;5.284;2022-12-29T16:09:03;9.90;;;2.83;;
37459;SDS011;23318;50.966;5.284;2022-12-29T16:11:42;16.38;;;3.13;;
37459;SDS011;23318;50.966;5.284;2022-12-29T16:14:17;20.58;;;3.28;;
37459;SDS011;23318;50.966;5.284;2022-12-29T16:16:46;14.57;;;2.50;;
37459;SDS011;23318;50.966;5.284;2022-12-29T16:19:17;6.30;;;1.63;;
37459;SDS011;23318;50.966;5.284;2022-12-29T16:21:51;5.13;;;0.90;;
37459;SDS011;23318;50.966;5.284;2022-12-29T16:24:18;4.13;;;1.17;;
37459;SDS011;23318;50.966;5.284;2022-12-29T16:26:49;3.33;;;0.98;;
37459;SDS011;23318;50.966;5.284;2022-12-29T16:29:28;5.50;;;1.27;;
37459;SDS011;23318;50.966;5.284;2022-12-29T16:31:56;7.15;;;1.75;;
37459;SDS011;23318;50.966;5.284;2022-12-29T16:39:53;9.98;;;2.30;;
37459;SDS011;23318;50.966;5.284;2022-12-29T16:47:38;14.32;;;3.92;;
37459;SDS011;23318;50.966;5.284;2022-12-29T16:50:11;22.50;;;4.55;;
37459;SDS011;23318;50.966;5.284;2022-12-29T16:52:42;15.02;;;4.68;;
37459;SDS011;23318;50.966;5.284;2022-12-29T16:55:15;11.73;;;3.72;;
37459;SDS011;23318;50.966;5.284;2022-12-29T16:57:42;15.30;;;3.35;;
37459;SDS011;23318;50.966;5.284;2022-12-29T17:00:23;17.55;;;4.47;;
37459;SDS011;23318;50.966;5.284;2022-12-29T17:02:51;10.75;;;2.90;;
37459;SDS011;23318;50.966;5.284;2022-12-29T17:05:23;14.05;;;2.35;;
37459;SDS011;23318;50.966;5.284;2022-12-29T17:07:49;15.07;;;3.38;;
37459;SDS011;23318;50.966;5.284;2022-12-29T17:10:16;16.67;;;3.00;;
37459;SDS011;23318;50.966;5.284;2022-12-29T17:12:43;16.45;;;2.85;;
37459;SDS011;23318;50.966;5.284;2022-12-29T17:15:13;20.48;;;3.60;;
37459;SDS011;23318;50.966;5.284;2022-12-29T17:17:43;14.40;;;2.42;;
37459;SDS011;23318;50.966;5.284;2022-12-29T17:20:15;17.02;;;3.63;;
37459;SDS011;23318;50.966;5.284;2022-12-29T17:22:41;10.35;;;3.40;;
37459;SDS011;23318;50.966;5.284;2022-12-29T17:25:10;18.23;;;3.72;;
37459;SDS011;23318;50.966;5.284;2022-12-29T17:27:38;13.80;;;2.70;;
37459;SDS011;23318;50.966;5.284;2022-12-29T17:30:11;12.25;;;2.92;;
37459;SDS011;23318;50.966;5.284;2022-12-29T17:32:41;16.70;;;3.35;;
37459;SDS011;23318;50.966;5.284;2022-12-29T17:35:14;18.45;;;3.33;;
37459;SDS011;23318;50.966;5.284;2022-12-29T17:37:41;14.18;;;3.53;;
37459;SDS011;23318;50.966;5.284;2022-12-29T17:40:09;15.60;;;3.58;;
37459;SDS011;23318;50.966;5.284;2022-12-29T17:42:44;19.05;;;3.42;;
37459;SDS011;23318;50.966;5.284;2022-12-29T17:45:15;16.65;;;3.63;;
37459;SDS011;23318;50.966;5.284;2022-12-29T17:47:46;17.70;;;3.25;;
37459;SDS011;23318;50.966;5.284;2022-12-29T17:50:13;19.67;;;2.97;;
37459;SDS011;23318;50.966;5.284;2022-12-29T17:52:46;22.30;;;4.43;;
37459;SDS011;23318;50.966;5.284;2022-12-29T17:55:16;14.82;;;3.60;;
37459;SDS011;23318;50.966;5.284;2022-12-29T17:57:44;13.88;;;3.22;;
37459;SDS011;23318;50.966;5.284;2022-12-29T18:02:42;13.63;;;2.85;;
37459;SDS011;23318;50.966;5.284;2022-12-29T18:05:13;13.98;;;2.13;;